Time;durP1;ratioP1;P1;durP2;ratioP2;P2;SDS_P1;SDS_P2;PMS_P1;PMS_P2;Temp;Humidity;BMP_temperature;BMP_pressure;BME280_temperature;BME280_humidity;BME280_pressure;Samples;Min_cycle;Max_cycle;Signal;HPM_P1;HPM_P2
2022/07/08 00:02:07;;;;;;;4.55;0.57;;;18.50;80.90;;;;;;5093977;28;20461;-71
2022/07/08 00:04:33;;;;;;;7.13;0.65;;;18.40;81.10;;;;;;5093838;28;20039;-71
2022/07/08 00:06:58;;;;;;;6.57;0.57;;;18.40;81.10;;;;;;5094033;28;20024;-71
2022/07/08 00:09:26;;;;;;;4.75;0.60;;;18.50;81.20;;;;;;5094284;28;20028;-72
2022/07/08 00:11:52;;;;;;;10.57;1.15;;;18.50;81.50;;;;;;5094278;28;20034;-72
2022/07/08 00:14:18;;;;;;;4.28;0.30;;;18.50;81.50;;;;;;5093763;28;20463;-71
2022/07/08 00:16:43;;;;;;;4.13;0.52;;;18.40;81.60;;;;;;5094231;28;20123;-72
2022/07/08 00:19:11;;;;;;;4.15;0.40;;;18.30;81.70;;;;;;5093821;28;20024;-72
2022/07/08 00:21:37;;;;;;;3.47;0.40;;;18.30;82.00;;;;;;5093970;28;20028;-72
2022/07/08 00:24:04;;;;;;;4.85;0.47;;;18.30;82.10;;;;;;5093571;28;20030;-72
2022/07/08 00:26:29;;;;;;;5.20;0.60;;;18.20;82.10;;;;;;5093763;28;20110;-72
2022/07/08 00:28:55;;;;;;;3.30;0.38;;;18.20;82.40;;;;;;5093298;28;20467;-72
2022/07/08 00:31:21;;;;;;;4.47;0.60;;;18.10;82.70;;;;;;5093671;28;20027;-72
2022/07/08 00:33:46;;;;;;;4.07;0.47;;;18.10;83.20;;;;;;5093560;28;20023;-71
2022/07/08 00:36:12;;;;;;;4.50;0.60;;;18.10;83.00;;;;;;5093875;28;20101;-71
2022/07/08 00:38:37;;;;;;;5.32;0.52;;;18.10;83.10;;;;;;5093552;28;20026;-71
2022/07/08 00:41:03;;;;;;;5.85;0.43;;;18.00;83.30;;;;;;5093266;28;20116;-72
2022/07/08 00:43:40;;;;;;;6.05;0.50;;;18.00;83.50;;;;;;5093617;28;20051;-72
2022/07/08 00:46:06;;;;;;;3.20;0.50;;;18.00;84.10;;;;;;5093741;28;20051;-72
2022/07/08 00:48:33;;;;;;;4.57;0.50;;;18.00;83.60;;;;;;5093140;28;20020;-71
2022/07/08 00:51:01;;;;;;;5.63;0.95;;;18.00;83.60;;;;;;5093561;28;20024;-72
2022/07/08 00:53:29;;;;;;;4.18;0.43;;;18.00;83.70;;;;;;5093631;28;20103;-71
2022/07/08 00:55:55;;;;;;;9.20;0.60;;;18.00;83.60;;;;;;5093259;28;20471;-71
2022/07/08 00:58:21;;;;;;;5.07;0.50;;;18.00;83.50;;;;;;5093581;28;20103;-71
2022/07/08 01:00:48;;;;;;;4.75;0.60;;;18.00;83.50;;;;;;5093174;28;20115;-71
2022/07/08 01:03:14;;;;;;;4.28;0.50;;;18.00;83.60;;;;;;5093166;28;20028;-71
2022/07/08 01:05:39;;;;;;;4.35;0.47;;;18.00;83.90;;;;;;5093405;28;20375;-71
2022/07/08 01:08:05;;;;;;;5.93;0.77;;;18.00;84.00;;;;;;5093311;28;20422;-71
2022/07/08 01:10:32;;;;;;;8.93;0.65;;;18.10;84.10;;;;;;5093401;28;20024;-71
2022/07/08 01:12:58;;;;;;;7.63;0.80;;;18.10;83.90;;;;;;5095005;28;20020;-72
2022/07/08 01:15:23;;;;;;;6.55;0.55;;;18.10;83.80;;;;;;5093065;28;20040;-72
2022/07/08 01:17:49;;;;;;;5.05;0.40;;;18.00;83.70;;;;;;5093523;28;20073;-71
2022/07/08 01:20:15;;;;;;;2.63;0.32;;;18.00;84.00;;;;;;5093439;28;20357;-72
2022/07/08 01:22:41;;;;;;;5.63;1.10;;;18.00;84.10;;;;;;5093488;28;20374;-72
2022/07/08 01:25:08;;;;;;;4.05;0.50;;;18.10;84.10;;;;;;5092922;28;20028;-72
2022/07/08 01:27:34;;;;;;;7.22;0.70;;;18.10;84.10;;;;;;5093099;28;20031;-72
2022/07/08 01:30:00;;;;;;;2.13;0.40;;;18.10;84.00;;;;;;5092903;28;20391;-72
2022/07/08 01:32:34;;;;;;;5.93;0.47;;;18.10;84.00;;;;;;5093142;28;20023;-72
2022/07/08 01:34:59;;;;;;;6.38;0.73;;;18.10;84.00;;;;;;5093004;28;20051;-72
2022/07/08 01:37:25;;;;;;;4.78;0.68;;;18.10;83.90;;;;;;5095143;28;20113;-72
2022/07/08 01:39:51;;;;;;;7.68;0.70;;;18.10;83.70;;;;;;5096468;28;20039;-72
2022/07/08 01:42:16;;;;;;;5.10;0.70;;;18.00;83.60;;;;;;5096729;28;20028;-71
2022/07/08 01:44:42;;;;;;;3.95;0.45;;;18.00;83.70;;;;;;5096985;28;20101;-71
2022/07/08 01:47:08;;;;;;;5.10;0.77;;;18.00;83.70;;;;;;5097031;28;20364;-71
2022/07/08 01:49:33;;;;;;;4.60;0.40;;;18.00;83.80;;;;;;5096574;28;20056;-72
2022/07/08 01:51:59;;;;;;;6.45;0.60;;;17.90;84.00;;;;;;5096384;28;20020;-72
2022/07/08 01:54:25;;;;;;;5.05;0.50;;;18.00;84.20;;;;;;5096491;28;20115;-72
2022/07/08 01:57:13;;;;;;;6.90;0.60;;;18.00;84.80;;;;;;5096485;28;20032;-72
2022/07/08 01:59:36;;;;;;;3.83;0.52;;;18.00;84.10;;;;;;5096242;28;20506;-72
2022/07/08 02:02:02;;;;;;;8.80;0.75;;;17.90;84.20;;;;;;5096501;28;20028;-72
2022/07/08 02:04:28;;;;;;;7.38;0.88;;;18.00;84.00;;;;;;5096387;28;20024;-71
2022/07/08 02:06:53;;;;;;;5.47;0.47;;;17.90;84.00;;;;;;5096164;28;20028;-70
2022/07/08 02:09:19;;;;;;;4.47;0.40;;;17.90;83.90;;;;;;5096711;28;20107;-71
2022/07/08 02:14:29;;;;;;;4.90;0.70;;;17.90;84.30;;;;;;5096318;28;20023;-72
2022/07/08 02:16:54;;;;;;;5.97;0.68;;;17.90;84.30;;;;;;5096084;28;20020;-71
2022/07/08 02:19:20;;;;;;;3.28;0.60;;;17.90;84.00;;;;;;5096010;28;20036;-72
2022/07/08 02:21:45;;;;;;;6.60;0.77;;;17.90;83.90;;;;;;5096086;28;20478;-72
2022/07/08 02:24:11;;;;;;;7.88;1.02;;;17.80;83.90;;;;;;5096261;28;20115;-72
2022/07/08 02:26:37;;;;;;;8.30;0.70;;;17.90;83.90;;;;;;5096214;28;20463;-72
2022/07/08 02:29:02;;;;;;;6.05;0.80;;;17.90;83.90;;;;;;5096064;28;20495;-72
2022/07/08 02:31:28;;;;;;;5.30;0.65;;;17.80;83.90;;;;;;5095959;28;20032;-72
2022/07/08 02:33:53;;;;;;;3.30;0.50;;;17.80;83.80;;;;;;5095537;28;20463;-72
2022/07/08 02:36:19;;;;;;;3.72;0.43;;;17.80;84.00;;;;;;5096020;28;20020;-72
2022/07/08 02:38:45;;;;;;;8.70;0.80;;;17.80;84.20;;;;;;5095574;28;20051;-72
2022/07/08 02:41:10;;;;;;;5.35;0.63;;;17.80;84.20;;;;;;5095885;28;20031;-71
2022/07/08 02:43:36;;;;;;;4.05;0.40;;;17.80;84.20;;;;;;5095719;28;20081;-71
2022/07/08 02:46:02;;;;;;;6.53;0.90;;;17.80;84.30;;;;;;5095841;28;20478;-72
2022/07/08 02:48:27;;;;;;;5.13;0.50;;;17.80;84.50;;;;;;5094729;28;20103;-72
2022/07/08 02:50:53;;;;;;;5.22;0.70;;;17.80;84.60;;;;;;5095517;28;20422;-72
2022/07/08 02:53:18;;;;;;;5.05;0.50;;;17.90;84.50;;;;;;5095441;28;20021;-71
2022/07/08 02:55:44;;;;;;;4.35;0.40;;;17.90;84.30;;;;;;5095757;28;20020;-71
2022/07/08 02:58:09;;;;;;;3.92;0.60;;;17.90;84.20;;;;;;5095298;28;20024;-72
2022/07/08 03:00:35;;;;;;;7.07;0.63;;;17.90;84.30;;;;;;5095198;28;20036;-71
2022/07/08 03:03:01;;;;;;;6.03;1.20;;;18.00;84.30;;;;;;5095353;28;20360;-70
2022/07/08 03:05:26;;;;;;;4.78;0.57;;;18.00;84.20;;;;;;5095491;28;20497;-71
2022/07/08 03:07:52;;;;;;;4.80;0.40;;;18.00;84.20;;;;;;5095371;28;20028;-72
2022/07/08 03:10:17;;;;;;;5.32;0.63;;;18.00;84.10;;;;;;5095217;28;20463;-72
2022/07/08 03:12:43;;;;;;;6.20;0.70;;;18.00;84.10;;;;;;5095092;28;20028;-72
2022/07/08 03:15:09;;;;;;;4.20;0.40;;;18.10;84.60;;;;;;5094949;28;20077;-72
2022/07/08 03:17:34;;;;;;;4.00;0.80;;;18.10;84.10;;;;;;5094942;28;20477;-72
2022/07/08 03:20:00;;;;;;;4.57;0.47;;;18.10;84.10;;;;;;5094951;28;20028;-72
2022/07/08 03:22:25;;;;;;;3.80;0.40;;;18.10;84.10;;;;;;5094752;28;20356;-71
2022/07/08 03:24:51;;;;;;;6.30;0.63;;;18.10;84.10;;;;;;5094709;28;20031;-71
2022/07/08 03:27:16;;;;;;;3.72;0.73;;;18.10;84.10;;;;;;5095014;28;20028;-72
2022/07/08 03:29:42;;;;;;;7.00;0.60;;;18.10;84.00;;;;;;5094851;28;20480;-72
2022/07/08 03:32:08;;;;;;;7.50;0.80;;;18.10;84.70;;;;;;5094661;28;20024;-72
2022/07/08 03:34:33;;;;;;;5.97;0.93;;;18.00;84.20;;;;;;5094826;28;20502;-72
2022/07/08 03:36:59;;;;;;;5.53;0.60;;;18.00;84.30;;;;;;5094591;28;20020;-72
2022/07/08 03:39:25;;;;;;;8.20;0.52;;;18.00;84.40;;;;;;5094752;28;20165;-71
2022/07/08 03:41:50;;;;;;;6.07;0.60;;;18.00;84.50;;;;;;5094651;28;20024;-71
2022/07/08 03:44:16;;;;;;;10.27;0.73;;;17.90;84.60;;;;;;5094666;28;20031;-72
2022/07/08 03:46:41;;;;;;;5.28;0.63;;;17.90;84.50;;;;;;5094349;28;20024;-72
2022/07/08 03:49:07;;;;;;;5.55;0.60;;;17.90;84.60;;;;;;5093935;28;20051;-72
2022/07/08 03:51:34;;;;;;;5.93;0.68;;;17.80;84.60;;;;;;5094555;28;20078;-72
2022/07/08 03:53:59;;;;;;;6.65;0.80;;;17.80;84.90;;;;;;5094556;28;20097;-72
2022/07/08 03:56:25;;;;;;;5.90;0.75;;;17.70;85.00;;;;;;5094503;28;20459;-72
2022/07/08 03:58:51;;;;;;;6.82;0.70;;;17.70;85.30;;;;;;5093607;28;20085;-70
2022/07/08 04:01:16;;;;;;;6.38;0.90;;;17.60;85.70;;;;;;5093851;28;20125;-71
2022/07/08 04:03:42;;;;;;;7.75;0.80;;;17.60;86.00;;;;;;5094371;28;20434;-72
2022/07/08 04:06:07;;;;;;;6.88;0.82;;;17.50;86.10;;;;;;5094265;28;20051;-72
2022/07/08 04:08:33;;;;;;;7.32;0.70;;;17.40;86.40;;;;;;5094118;28;20111;-72
2022/07/08 04:10:59;;;;;;;8.80;0.80;;;17.40;86.90;;;;;;5094251;28;20051;-72
2022/07/08 04:13:27;;;;;;;10.88;0.90;;;17.30;87.30;;;;;;5093896;28;20126;-71
2022/07/08 04:15:53;;;;;;;8.50;0.80;;;17.30;87.40;;;;;;5094318;28;20035;-71
2022/07/08 04:18:19;;;;;;;6.25;0.90;;;17.20;87.50;;;;;;5093631;28;20463;-71
2022/07/08 04:20:45;;;;;;;8.98;1.13;;;17.20;88.00;;;;;;5093769;28;20061;-71
2022/07/08 04:23:11;;;;;;;7.13;0.93;;;17.10;88.10;;;;;;5094026;28;20016;-71
2022/07/08 04:25:36;;;;;;;4.95;0.60;;;17.10;88.20;;;;;;5093842;28;20188;-71
2022/07/08 04:28:02;;;;;;;7.80;0.80;;;17.10;88.40;;;;;;5094065;28;20016;-71
2022/07/08 04:30:28;;;;;;;9.68;1.10;;;17.10;88.70;;;;;;5093531;28;20103;-71
2022/07/08 04:32:53;;;;;;;5.60;0.63;;;17.10;88.80;;;;;;5093648;28;20047;-71
2022/07/08 04:35:19;;;;;;;7.25;1.30;;;17.10;89.10;;;;;;5093719;28;20039;-70
2022/07/08 04:37:44;;;;;;;5.63;1.00;;;17.10;89.30;;;;;;5093797;28;20474;-71
2022/07/08 04:40:10;;;;;;;8.00;1.15;;;17.00;89.50;;;;;;5093498;28;20144;-71
2022/07/08 04:42:36;;;;;;;4.85;0.75;;;17.00;89.70;;;;;;5093399;28;20024;-71
2022/07/08 04:45:03;;;;;;;7.47;1.02;;;17.00;90.00;;;;;;5093113;28;20067;-71
2022/07/08 04:47:28;;;;;;;6.10;0.80;;;17.00;90.00;;;;;;5093451;28;20024;-71
2022/07/08 04:49:54;;;;;;;8.85;1.50;;;17.10;90.00;;;;;;5093176;28;20059;-71
2022/07/08 04:52:20;;;;;;;10.45;0.90;;;17.10;90.00;;;;;;5093578;28;20024;-71
2022/07/08 04:54:45;;;;;;;8.20;0.90;;;17.10;89.90;;;;;;5093274;28;20027;-71
2022/07/08 04:57:11;;;;;;;9.30;1.55;;;17.10;90.00;;;;;;5093555;28;20379;-70
2022/07/08 04:59:36;;;;;;;6.60;0.73;;;17.10;90.20;;;;;;5093168;28;20062;-71
2022/07/08 05:02:02;;;;;;;7.10;0.70;;;17.10;90.10;;;;;;5093538;28;20108;-71
2022/07/08 05:04:28;;;;;;;9.75;1.27;;;17.10;90.10;;;;;;5093513;28;20383;-71
2022/07/08 05:06:54;;;;;;;7.80;0.77;;;17.10;90.20;;;;;;5093297;28;20020;-71
2022/07/08 05:09:20;;;;;;;8.27;1.02;;;17.10;90.10;;;;;;5092933;28;20020;-71
2022/07/08 05:11:46;;;;;;;6.53;1.10;;;17.00;90.20;;;;;;5096250;28;20035;-71
2022/07/08 05:14:13;;;;;;;4.70;0.70;;;17.00;90.30;;;;;;5097042;28;20017;-71
2022/07/08 05:16:40;;;;;;;6.95;0.77;;;17.10;90.40;;;;;;5097156;28;20457;-71
2022/07/08 05:19:06;;;;;;;9.80;1.02;;;17.10;90.40;;;;;;5097003;28;20024;-71
2022/07/08 05:21:31;;;;;;;8.70;1.00;;;17.10;90.40;;;;;;5097318;28;20055;-71
2022/07/08 05:23:57;;;;;;;9.23;1.17;;;17.10;90.50;;;;;;5097214;28;20453;-70
2022/07/08 05:26:23;;;;;;;7.75;0.98;;;17.10;90.60;;;;;;5097313;28;20028;-71
2022/07/08 05:28:48;;;;;;;8.63;1.17;;;17.00;90.70;;;;;;5096843;28;20017;-71
2022/07/08 05:31:14;;;;;;;7.13;0.75;;;17.10;90.80;;;;;;5097087;28;20108;-71
2022/07/08 05:33:39;;;;;;;11.75;0.95;;;17.00;90.90;;;;;;5096927;28;20012;-71
2022/07/08 05:36:06;;;;;;;13.50;1.35;;;17.00;91.10;;;;;;5096714;28;20096;-71
2022/07/08 05:38:32;;;;;;;6.95;1.20;;;16.90;91.30;;;;;;5096677;28;20498;-71
2022/07/08 05:40:58;;;;;;;8.45;1.25;;;17.00;91.40;;;;;;5096458;28;20058;-71
2022/07/08 05:43:23;;;;;;;10.95;0.88;;;17.00;91.50;;;;;;5096499;28;20024;-71
2022/07/08 05:45:49;;;;;;;9.75;0.90;;;17.00;91.50;;;;;;5096925;28;20024;-71
2022/07/08 05:48:15;;;;;;;13.63;1.25;;;17.00;91.50;;;;;;5096566;28;20024;-71
2022/07/08 05:50:40;;;;;;;11.18;0.88;;;17.00;91.60;;;;;;5096360;28;20059;-71
2022/07/08 05:53:06;;;;;;;11.95;0.98;;;17.00;91.60;;;;;;5097383;28;20028;-71
2022/07/08 05:55:31;;;;;;;8.80;0.95;;;17.00;91.60;;;;;;5096701;28;20468;-71
2022/07/08 05:57:57;;;;;;;8.90;0.90;;;17.20;91.60;;;;;;5096301;28;20446;-71
2022/07/08 06:00:22;;;;;;;7.85;1.20;;;17.20;91.50;;;;;;5096443;28;20135;-71
2022/07/08 06:02:49;;;;;;;5.03;0.70;;;17.30;91.40;;;;;;5096726;28;20020;-71
2022/07/08 06:05:15;;;;;;;8.90;0.95;;;17.30;91.30;;;;;;5096007;28;20027;-71
2022/07/08 06:07:41;;;;;;;12.40;1.27;;;17.40;91.40;;;;;;5096543;28;20031;-72
2022/07/08 06:10:07;;;;;;;11.40;1.30;;;17.40;91.30;;;;;;5096199;28;20391;-71
2022/07/08 06:12:33;;;;;;;12.40;1.00;;;17.50;91.30;;;;;;5096090;28;20024;-72
2022/07/08 06:14:59;;;;;;;6.80;0.77;;;17.50;91.40;;;;;;5096307;28;20031;-72
2022/07/08 06:17:24;;;;;;;8.13;0.60;;;17.60;91.40;;;;;;5096172;28;20027;-70
2022/07/08 06:19:50;;;;;;;6.40;0.85;;;17.60;91.30;;;;;;5096224;28;20390;-71
2022/07/08 06:22:18;;;;;;;10.15;0.90;;;17.70;91.30;;;;;;5095361;28;20455;-71
2022/07/08 06:24:44;;;;;;;10.90;1.40;;;17.70;91.10;;;;;;5095791;28;20024;-71
2022/07/08 06:27:09;;;;;;;10.93;1.17;;;17.70;91.20;;;;;;5095785;28;20027;-71
2022/07/08 06:29:35;;;;;;;9.20;0.85;;;17.70;91.20;;;;;;5096214;28;20103;-71
2022/07/08 06:32:00;;;;;;;8.82;0.80;;;17.70;91.20;;;;;;5095925;28;20395;-71
2022/07/08 06:34:26;;;;;;;9.23;0.70;;;17.70;91.20;;;;;;5096102;28;20077;-71
2022/07/08 06:36:52;;;;;;;12.60;1.27;;;17.80;91.30;;;;;;5095550;28;20059;-71
2022/07/08 06:39:17;;;;;;;9.88;1.05;;;17.80;91.20;;;;;;5095645;28;20028;-71
2022/07/08 06:41:43;;;;;;;12.05;1.30;;;17.80;91.20;;;;;;5095900;28;20077;-71
2022/07/08 06:44:08;;;;;;;7.38;1.30;;;17.80;91.30;;;;;;5095592;28;20081;-72
2022/07/08 06:46:34;;;;;;;7.15;0.90;;;17.80;91.40;;;;;;5095894;28;20070;-71
2022/07/08 06:49:00;;;;;;;9.48;0.65;;;17.90;91.40;;;;;;5095750;28;20403;-71
2022/07/08 06:51:25;;;;;;;10.82;1.00;;;17.90;91.30;;;;;;5095630;28;20504;-71
2022/07/08 06:56:35;;;;;;;8.20;0.90;;;17.90;91.30;;;;;;5095413;28;20111;-72
2022/07/08 06:59:00;;;;;;;8.98;1.45;;;18.00;91.30;;;;;;5095196;28;20447;-72
2022/07/08 07:01:26;;;;;;;7.82;0.98;;;18.00;91.60;;;;;;5095408;28;20028;-72
2022/07/08 07:03:52;;;;;;;6.85;0.90;;;18.10;91.60;;;;;;5095294;28;20491;-71
2022/07/08 07:06:17;;;;;;;6.72;1.33;;;18.10;91.50;;;;;;5094976;28;20070;-72
2022/07/08 07:08:44;;;;;;;76.85;9.07;;;18.20;91.50;;;;;;5095328;28;20433;-72
2022/07/08 07:11:09;;;;;;;14.73;1.83;;;18.20;91.80;;;;;;5095296;28;20024;-72
2022/07/08 07:13:35;;;;;;;91.35;8.45;;;18.30;91.30;;;;;;5095251;28;20024;-72
2022/07/08 07:16:00;;;;;;;21.10;1.90;;;18.20;91.10;;;;;;5094946;28;20016;-72
2022/07/08 07:18:26;;;;;;;73.78;7.78;;;18.30;91.40;;;;;;5094749;28;20032;-70
2022/07/08 07:20:52;;;;;;;15.32;2.00;;;18.30;91.30;;;;;;5094744;28;20059;-71
2022/07/08 07:23:17;;;;;;;9.90;1.33;;;18.30;91.30;;;;;;5095023;28;20031;-71
2022/07/08 07:25:43;;;;;;;9.85;1.42;;;18.30;91.10;;;;;;5094577;28;20467;-71
2022/07/08 07:28:08;;;;;;;15.75;1.70;;;18.30;91.20;;;;;;5094934;28;20020;-72
2022/07/08 07:30:34;;;;;;;11.88;1.10;;;18.30;91.40;;;;;;5094945;28;20447;-72
2022/07/08 07:32:59;;;;;;;6.07;0.63;;;18.50;91.30;;;;;;5094570;28;20103;-71
2022/07/08 07:35:25;;;;;;;8.27;0.90;;;18.60;90.90;;;;;;5094888;28;20035;-72
2022/07/08 07:37:51;;;;;;;10.65;0.98;;;18.60;90.90;;;;;;5094237;28;20024;-71
2022/07/08 07:40:16;;;;;;;6.63;0.85;;;18.70;90.90;;;;;;5094695;28;20044;-72
2022/07/08 07:42:42;;;;;;;12.23;1.20;;;18.80;90.60;;;;;;5094768;28;20418;-72
2022/07/08 07:45:08;;;;;;;10.95;1.55;;;18.80;90.50;;;;;;5096581;28;20042;-72
2022/07/08 07:47:33;;;;;;;9.13;0.88;;;18.80;90.40;;;;;;5094773;28;20035;-71
2022/07/08 07:49:59;;;;;;;8.30;1.15;;;18.90;90.30;;;;;;5094152;28;20052;-71
2022/07/08 07:52:25;;;;;;;6.50;0.98;;;18.90;90.00;;;;;;5093994;28;20486;-71
2022/07/08 07:54:50;;;;;;;7.18;1.02;;;19.00;90.00;;;;;;5094085;28;20040;-71
2022/07/08 07:57:16;;;;;;;8.05;1.13;;;19.10;89.00;;;;;;5094479;28;20024;-71
2022/07/08 07:59:42;;;;;;;7.72;1.05;;;19.10;88.80;;;;;;5094223;28;20074;-71
2022/07/08 08:02:08;;;;;;;9.80;1.17;;;19.20;88.30;;;;;;5094085;28;20379;-71
2022/07/08 08:04:34;;;;;;;7.60;1.00;;;19.30;87.80;;;;;;5093996;28;20020;-72
2022/07/08 08:07:00;;;;;;;6.80;1.00;;;19.30;87.30;;;;;;5094046;28;20382;-72
2022/07/08 08:09:26;;;;;;;6.93;0.77;;;19.30;87.00;;;;;;5093667;28;20383;-72
2022/07/08 08:11:52;;;;;;;5.57;0.60;;;19.50;87.30;;;;;;5094199;28;20020;-72
2022/07/08 08:14:18;;;;;;;6.53;1.00;;;19.50;87.50;;;;;;5093857;28;20047;-72
2022/07/08 08:16:43;;;;;;;6.07;0.95;;;19.70;87.50;;;;;;5094122;28;20023;-72
2022/07/08 08:19:09;;;;;;;9.23;1.10;;;19.70;87.30;;;;;;5093601;28;20467;-71
2022/07/08 08:21:36;;;;;;;6.13;0.73;;;19.80;86.70;;;;;;5093632;28;20035;-71
2022/07/08 08:24:02;;;;;;;6.85;1.00;;;19.80;85.80;;;;;;5093719;28;20032;-71
2022/07/08 08:26:28;;;;;;;6.60;0.82;;;19.80;85.20;;;;;;5093976;28;20073;-71
2022/07/08 08:28:53;;;;;;;7.10;0.80;;;19.80;85.90;;;;;;5093563;28;20024;-72
2022/07/08 08:31:19;;;;;;;8.82;0.82;;;19.90;85.40;;;;;;5093685;28;20035;-72
2022/07/08 08:33:45;;;;;;;9.65;1.48;;;19.90;85.40;;;;;;5093825;28;20050;-71
2022/07/08 08:36:10;;;;;;;9.63;0.82;;;19.90;84.60;;;;;;5093857;28;20024;-71
2022/07/08 08:38:36;;;;;;;11.68;0.70;;;20.00;86.40;;;;;;5093189;28;20035;-71
2022/07/08 08:41:02;;;;;;;5.60;0.75;;;20.00;85.00;;;;;;5093398;28;20123;-70
2022/07/08 08:43:27;;;;;;;6.43;0.90;;;20.10;85.20;;;;;;5093686;28;20016;-71
2022/07/08 08:45:54;;;;;;;9.98;1.27;;;20.10;84.90;;;;;;5093139;28;20475;-71
2022/07/08 08:48:24;;;;;;;10.38;0.75;;;20.20;84.90;;;;;;5093537;28;20020;-71
2022/07/08 08:50:55;;;;;;;5.28;1.15;;;20.30;85.40;;;;;;5092962;28;20051;-71
2022/07/08 08:53:23;;;;;;;6.35;0.80;;;20.30;87.00;;;;;;5093087;28;20468;-72
2022/07/08 08:55:51;;;;;;;5.38;1.02;;;20.30;86.60;;;;;;5093240;28;20028;-71
2022/07/08 08:58:17;;;;;;;8.95;1.02;;;20.40;86.40;;;;;;5093455;28;20030;-71
2022/07/08 09:00:43;;;;;;;7.22;0.85;;;20.40;86.50;;;;;;5093219;28;20036;-72
2022/07/08 09:03:09;;;;;;;5.82;0.88;;;20.40;85.80;;;;;;5092871;28;20020;-72
2022/07/08 09:05:34;;;;;;;6.15;0.85;;;20.30;86.30;;;;;;5093278;28;20115;-70
2022/07/08 09:08:00;;;;;;;6.15;0.90;;;20.30;86.70;;;;;;5093297;28;20053;-72
2022/07/08 09:10:26;;;;;;;8.02;1.33;;;20.30;85.70;;;;;;5093114;28;20031;-70
2022/07/08 09:13:04;;;;;;;4.97;0.68;;;20.40;85.20;;;;;;5092995;28;20020;-71
2022/07/08 09:15:41;;;;;;;6.43;0.80;;;20.40;85.90;;;;;;5093261;28;20016;-71
2022/07/08 09:18:12;;;;;;;7.53;0.73;;;20.50;86.50;;;;;;5093200;28;20042;-71
2022/07/08 09:20:41;;;;;;;8.98;1.13;;;20.60;86.10;;;;;;5092839;28;20506;-70
2022/07/08 09:23:36;;;;;;;6.90;0.60;;;20.70;85.80;;;;;;5092883;28;20521;-71
2022/07/08 09:26:06;;;;;;;8.32;1.30;;;20.80;86.00;;;;;;5092733;28;20020;-71
2022/07/08 09:28:36;;;;;;;7.75;0.80;;;21.00;85.90;;;;;;5093144;28;20078;-72
2022/07/08 09:31:10;;;;;;;7.40;0.73;;;21.30;85.40;;;;;;5092902;28;20055;-71
2022/07/08 09:33:36;;;;;;;4.00;0.52;;;21.60;84.10;;;;;;5092942;28;20027;-71
2022/07/08 09:36:03;;;;;;;9.98;1.20;;;21.80;83.20;;;;;;5092936;28;20024;-70
2022/07/08 09:38:34;;;;;;;5.57;0.50;;;22.10;82.90;;;;;;5092563;28;20024;-71
2022/07/08 09:41:05;;;;;;;7.22;0.73;;;22.20;81.50;;;;;;5092424;28;20032;-71
2022/07/08 09:43:32;;;;;;;6.05;0.93;;;22.30;81.80;;;;;;5092717;28;20020;-72
2022/07/08 09:46:05;;;;;;;7.18;0.60;;;22.40;81.40;;;;;;5093084;28;20040;-72
2022/07/08 09:48:31;;;;;;;14.45;0.90;;;22.60;81.00;;;;;;5092537;28;20024;-73
2022/07/08 09:50:59;;;;;;;5.75;0.50;;;22.60;79.60;;;;;;5092942;28;20035;-72
2022/07/08 09:53:28;;;;;;;6.47;0.93;;;22.70;79.10;;;;;;5092895;28;20047;-72
2022/07/08 09:55:55;;;;;;;14.73;1.15;;;22.70;80.00;;;;;;5093133;28;20031;-72
2022/07/08 09:58:23;;;;;;;5.55;0.65;;;22.60;78.00;;;;;;5094966;28;20039;-71
2022/07/08 10:00:51;;;;;;;7.53;0.88;;;22.50;78.10;;;;;;5096645;28;20105;-71
2022/07/08 10:03:18;;;;;;;6.50;0.70;;;22.40;78.20;;;;;;5096143;28;20021;-74
2022/07/08 10:05:46;;;;;;;5.50;0.70;;;22.40;78.20;;;;;;5096692;28;20028;-71
2022/07/08 10:08:13;;;;;;;4.68;0.80;;;22.30;77.50;;;;;;5096114;28;20027;-71
2022/07/08 10:10:42;;;;;;;8.00;0.80;;;22.20;78.10;;;;;;5096437;28;20036;-71
2022/07/08 10:13:08;;;;;;;5.25;0.88;;;22.20;78.50;;;;;;5096372;28;20020;-72
2022/07/08 10:15:36;;;;;;;8.30;0.85;;;22.20;79.30;;;;;;5095895;28;20032;-72
2022/07/08 10:18:06;;;;;;;5.40;0.80;;;22.30;79.40;;;;;;5095936;28;20020;-72
2022/07/08 10:20:33;;;;;;;6.65;0.60;;;22.30;80.10;;;;;;5095795;28;20036;-72
2022/07/08 10:23:25;;;;;;;6.97;0.70;;;22.30;79.60;;;;;;5095976;28;20072;-72
2022/07/08 10:25:51;;;;;;;6.20;0.68;;;22.30;79.60;;;;;;5096016;28;20032;-72
2022/07/08 10:28:16;;;;;;;5.43;1.05;;;22.40;79.30;;;;;;5096136;28;20103;-72
2022/07/08 10:30:52;;;;;;;5.60;0.68;;;22.50;79.70;;;;;;5095861;28;20417;-73
2022/07/08 10:33:30;;;;;;;5.82;1.02;;;22.60;81.00;;;;;;5096016;28;20047;-71
2022/07/08 10:36:06;;;;;;;5.18;0.70;;;22.70;79.00;;;;;;5095927;28;20361;-71
2022/07/08 10:38:44;;;;;;;4.60;0.60;;;22.70;78.00;;;;;;5095803;28;20031;-72
2022/07/08 10:41:10;;;;;;;3.35;0.40;;;22.80;78.10;;;;;;5095199;28;20070;-71
2022/07/08 10:43:37;;;;;;;4.45;0.70;;;22.80;77.20;;;;;;5095232;28;20024;-72
2022/07/08 10:46:12;;;;;;;7.05;0.80;;;22.70;76.90;;;;;;5095723;28;20105;-71
2022/07/08 10:48:40;;;;;;;5.75;0.85;;;22.70;77.80;;;;;;5095449;28;20480;-72
2022/07/08 10:51:26;;;;;;;7.15;0.98;;;22.80;77.80;;;;;;5095460;28;20032;-72
2022/07/08 10:54:01;;;;;;;9.73;1.25;;;22.90;77.10;;;;;;5094905;28;20490;-72
2022/07/08 10:56:49;;;;;;;5.68;0.98;;;23.00;76.70;;;;;;5095211;28;20028;-71
2022/07/08 10:59:18;;;;;;;3.92;0.98;;;23.10;75.70;;;;;;5095222;28;20081;-72
2022/07/08 11:01:52;;;;;;;7.88;0.85;;;23.00;75.90;;;;;;5094699;28;20530;-71
2022/07/08 11:04:21;;;;;;;5.25;0.80;;;22.90;76.20;;;;;;5095081;28;20030;-72
2022/07/08 11:06:46;;;;;;;8.38;1.20;;;22.80;75.80;;;;;;5095089;28;20077;-72
2022/07/08 11:09:17;;;;;;;6.57;0.90;;;22.80;76.20;;;;;;5095090;28;20020;-72
2022/07/08 11:11:45;;;;;;;6.18;0.68;;;22.60;76.60;;;;;;5095230;28;20024;-72
2022/07/08 11:14:12;;;;;;;6.25;1.00;;;22.50;77.10;;;;;;5094897;28;20137;-72
2022/07/08 11:16:38;;;;;;;6.05;0.90;;;22.50;76.90;;;;;;5094879;28;20047;-72
2022/07/08 11:19:07;;;;;;;4.50;0.70;;;22.50;77.80;;;;;;5094901;28;20463;-71
2022/07/08 11:21:33;;;;;;;6.05;0.60;;;22.60;78.50;;;;;;5094865;28;20115;-71
2022/07/08 11:23:59;;;;;;;7.50;0.95;;;22.60;78.50;;;;;;5094915;28;20387;-72
2022/07/08 11:26:25;;;;;;;7.03;0.88;;;22.70;78.50;;;;;;5096026;28;20446;-71
2022/07/08 11:28:51;;;;;;;11.32;1.10;;;22.90;79.50;;;;;;5096333;28;20060;-71
2022/07/08 11:31:28;;;;;;;6.22;0.95;;;23.10;78.30;;;;;;5095053;28;20459;-71
2022/07/08 11:33:54;;;;;;;7.63;1.00;;;23.20;77.70;;;;;;5094682;28;20038;-72
2022/07/08 11:36:20;;;;;;;6.68;1.10;;;23.30;76.90;;;;;;5094301;28;20028;-73
2022/07/08 11:38:48;;;;;;;6.25;0.73;;;23.50;76.30;;;;;;5094481;28;20032;-72
2022/07/08 11:41:14;;;;;;;5.15;0.93;;;23.60;76.10;;;;;;5094648;28;20040;-71
2022/07/08 11:43:41;;;;;;;6.28;0.90;;;23.70;77.20;;;;;;5094445;28;20028;-71
2022/07/08 11:46:20;;;;;;;3.75;0.75;;;23.90;76.20;;;;;;5094212;28;20055;-72
2022/07/08 11:48:46;;;;;;;6.00;0.70;;;24.00;75.70;;;;;;5094316;28;20047;-72
2022/07/08 11:51:13;;;;;;;7.25;0.90;;;24.10;75.80;;;;;;5094370;28;20020;-72
2022/07/08 11:53:39;;;;;;;6.50;0.90;;;24.10;74.90;;;;;;5093868;28;20032;-71
2022/07/08 11:56:05;;;;;;;4.53;1.27;;;24.10;75.10;;;;;;5093905;28;20023;-72
2022/07/08 11:58:30;;;;;;;3.53;0.50;;;24.10;75.20;;;;;;5094286;28;20107;-72
2022/07/08 12:00:56;;;;;;;6.28;0.82;;;24.10;75.10;;;;;;5094359;28;20526;-72
2022/07/08 12:03:22;;;;;;;8.80;1.00;;;24.10;75.60;;;;;;5094361;28;20031;-72
2022/07/08 12:05:47;;;;;;;5.82;0.85;;;24.10;75.90;;;;;;5094132;28;20371;-72
2022/07/08 12:08:14;;;;;;;3.78;0.70;;;24.00;76.10;;;;;;5093907;28;20028;-72
2022/07/08 12:10:39;;;;;;;4.18;0.70;;;23.90;76.70;;;;;;5094010;28;20043;-72
2022/07/08 12:13:05;;;;;;;3.35;0.52;;;23.80;76.50;;;;;;5093841;28;20021;-72
2022/07/08 12:15:36;;;;;;;6.90;0.88;;;23.70;76.20;;;;;;5093807;28;20104;-73
2022/07/08 12:18:03;;;;;;;7.53;0.80;;;23.70;76.60;;;;;;5093409;28;20525;-72
2022/07/08 12:20:32;;;;;;;7.35;0.80;;;23.70;77.70;;;;;;5093308;28;20035;-72
2022/07/08 12:22:58;;;;;;;6.72;1.02;;;23.80;78.40;;;;;;5093977;28;20024;-72
2022/07/08 12:25:24;;;;;;;6.95;1.00;;;23.90;77.30;;;;;;5095805;28;20058;-72
2022/07/08 12:28:02;;;;;;;4.35;0.80;;;24.00;76.80;;;;;;5094097;28;20043;-72
2022/07/08 12:30:29;;;;;;;6.68;0.93;;;23.90;76.80;;;;;;5093599;28;20024;-72
2022/07/08 12:33:00;;;;;;;4.88;0.80;;;24.00;77.50;;;;;;5093296;28;20031;-72
2022/07/08 12:35:33;;;;;;;7.15;0.90;;;24.00;77.70;;;;;;5093518;28;20096;-72
2022/07/08 12:38:06;;;;;;;6.13;0.90;;;24.00;77.90;;;;;;5093402;28;20016;-72
2022/07/08 12:40:42;;;;;;;3.97;0.90;;;23.90;77.70;;;;;;5093693;28;20039;-72
2022/07/08 12:43:10;;;;;;;4.07;0.63;;;23.80;78.20;;;;;;5093358;28;20020;-72
2022/07/08 12:45:36;;;;;;;7.30;0.90;;;23.80;77.80;;;;;;5093599;28;20024;-72
2022/07/08 12:48:02;;;;;;;3.97;0.60;;;23.90;77.90;;;;;;5093177;28;20504;-72
2022/07/08 12:50:29;;;;;;;6.18;0.63;;;23.90;78.20;;;;;;5092989;28;20071;-73